Time;durP1;ratioP1;P1;durP2;ratioP2;P2;SDS_P1;SDS_P2;PMS_P1;PMS_P2;Temp;Humidity;BMP_temperature;BMP_pressure;BME280_temperature;BME280_humidity;BME280_pressure;Samples;Min_cycle;Max_cycle;Signal;HPM_P1;HPM_P2
2022/10/10 00:00:22;;;;;;;17.58;15.55;;;;;;;15.00;66.72;95363.06;4161697;28;20465;-63
2022/10/10 00:02:24;;;;;;;20.08;15.68;;;;;;;14.97;66.84;95376.59;4163651;28;20135;-63
2022/10/10 00:04:25;;;;;;;23.48;16.13;;;;;;;14.92;66.72;95376.25;4156652;28;20489;-61
2022/10/10 00:06:27;;;;;;;19.27;15.07;;;;;;;14.86;67.00;95379.56;4163410;28;20111;-63
2022/10/10 00:08:34;;;;;;;18.10;16.20;;;;;;;14.76;67.48;95376.31;4162236;28;20053;-60
2022/10/10 00:10:36;;;;;;;17.60;15.32;;;;;;;14.71;67.27;95380.28;4156901;28;20273;-62
2022/10/10 00:12:38;;;;;;;17.73;15.50;;;;;;;14.69;67.63;95382.25;4159710;28;20053;-62
2022/10/10 00:14:40;;;;;;;19.35;15.75;;;;;;;14.69;67.61;95392.81;4163026;28;20061;-63
2022/10/10 00:16:41;;;;;;;17.05;15.25;;;;;;;14.71;67.27;95382.91;4161264;28;20056;-63
2022/10/10 00:18:43;;;;;;;18.92;16.50;;;;;;;14.67;67.14;95373.69;4162937;28;20552;-62
2022/10/10 00:20:45;;;;;;;19.05;16.13;;;;;;;14.66;67.25;95384.41;4163010;28;20057;-62
2022/10/10 00:22:47;;;;;;;18.63;16.15;;;;;;;14.64;67.33;95381.91;4151820;28;20061;-56
2022/10/10 00:24:49;;;;;;;19.73;16.48;;;;;;;14.61;67.70;95378.81;4161536;28;20049;-57
2022/10/10 00:26:51;;;;;;;17.55;15.70;;;;;;;14.51;68.15;95369.22;4162521;28;20053;-57
2022/10/10 00:28:52;;;;;;;19.00;15.60;;;;;;;14.37;68.55;95367.28;4162881;28;20594;-57
2022/10/10 00:30:54;;;;;;;20.52;16.27;;;;;;;13.96;70.10;95375.19;4161423;28;20056;-55
2022/10/10 00:32:59;;;;;;;24.35;17.65;;;;;;;13.54;70.88;95381.34;4162551;28;20053;-58
2022/10/10 00:35:02;;;;;;;19.55;16.90;;;;;;;13.29;72.16;95380.44;4163039;28;20049;-57
2022/10/10 00:37:03;;;;;;;22.10;17.52;;;;;;;12.83;73.96;95374.63;4156531;28;20465;-56
2022/10/10 00:39:05;;;;;;;22.13;17.98;;;;;;;12.73;74.05;95376.53;4162496;28;20041;-58
2022/10/10 00:41:07;;;;;;;21.25;17.98;;;;;;;12.65;74.73;95380.75;4162191;28;20142;-56
2022/10/10 00:43:09;;;;;;;20.73;18.05;;;;;;;12.88;74.88;95385.47;4162831;28;20041;-58
2022/10/10 00:45:30;;;;;;;21.55;17.65;;;;;;;13.10;73.52;95374.44;4159858;28;20133;-56
2022/10/10 00:47:32;;;;;;;20.83;17.27;;;;;;;13.31;72.63;95373.19;4162408;28;20090;-59
2022/10/10 00:49:38;;;;;;;20.17;17.15;;;;;;;13.45;72.14;95369.97;4162369;28;20068;-56
2022/10/10 00:51:40;;;;;;;20.98;17.15;;;;;;;13.57;71.96;95367.84;4158748;28;20128;-57
2022/10/10 00:53:44;;;;;;;19.10;17.17;;;;;;;13.71;71.35;95366.41;4161880;28;20088;-57
2022/10/10 00:55:46;;;;;;;17.83;16.02;;;;;;;13.83;70.75;95370.38;4158081;28;20502;-56
2022/10/10 00:57:48;;;;;;;19.90;16.95;;;;;;;13.90;69.87;95371.38;4147544;28;20563;-57
2022/10/10 00:59:52;;;;;;;18.75;16.27;;;;;;;13.93;69.80;95372.84;4147293;28;20045;-55
2022/10/10 01:01:53;;;;;;;19.30;16.40;;;;;;;13.95;69.74;95370.06;4160308;28;20080;-57
2022/10/10 01:04:00;;;;;;;18.52;16.60;;;;;;;13.97;69.60;95363.63;4162647;28;20081;-57
2022/10/10 01:06:02;;;;;;;16.92;15.23;;;;;;;13.99;69.85;95366.13;4162263;28;20120;-57
2022/10/10 01:08:05;;;;;;;20.08;16.73;;;;;;;14.01;69.29;95367.59;4161017;28;20077;-57
2022/10/10 01:10:14;;;;;;;21.52;16.80;;;;;;;14.06;69.37;95369.75;4160984;28;20077;-58
2022/10/10 01:12:24;;;;;;;19.88;16.48;;;;;;;14.11;69.05;95370.06;4162165;28;20132;-59
2022/10/10 01:14:26;;;;;;;19.77;17.63;;;;;;;14.16;68.76;95377.50;4162384;28;20060;-58
2022/10/10 01:16:42;;;;;;;18.52;16.30;;;;;;;14.11;69.14;95381.44;4160534;28;20068;-57
2022/10/10 01:19:08;;;;;;;20.70;16.77;;;;;;;14.09;68.83;95383.41;4162346;28;20484;-57
2022/10/10 01:21:23;;;;;;;19.88;16.45;;;;;;;14.03;69.23;95388.50;4150314;28;20132;-57
2022/10/10 01:23:59;;;;;;;22.15;16.90;;;;;;;14.01;69.30;95379.94;4157668;28;20088;-57
2022/10/10 01:26:29;;;;;;;19.85;16.05;;;;;;;13.97;69.63;95374.19;4150687;28;20049;-57
2022/10/10 01:28:35;;;;;;;20.58;16.30;;;;;;;13.95;69.48;95372.69;4162230;28;20060;-57
2022/10/10 01:30:39;;;;;;;21.67;17.23;;;;;;;13.93;69.66;95381.56;4158766;28;20274;-57
2022/10/10 01:32:47;;;;;;;21.23;17.63;;;;;;;13.92;69.28;95382.56;4141396;28;20045;-58
2022/10/10 01:35:02;;;;;;;24.83;17.23;;;;;;;13.95;69.28;95383.22;4161971;28;20494;-59
2022/10/10 01:37:17;;;;;;;20.73;16.73;;;;;;;13.87;69.37;95379.63;4160799;28;20077;-57
2022/10/10 01:39:35;;;;;;;21.40;17.15;;;;;;;13.87;69.56;95384.88;4160469;28;20136;-58
2022/10/10 01:41:42;;;;;;;19.73;17.40;;;;;;;13.88;69.46;95383.88;4160147;28;20103;-56
2022/10/10 01:43:44;;;;;;;21.75;16.63;;;;;;;13.90;69.40;95378.47;4157614;28;20137;-57
2022/10/10 01:45:48;;;;;;;21.85;17.80;;;;;;;13.90;69.48;95373.19;4156606;28;20045;-56
2022/10/10 01:47:50;;;;;;;17.73;15.88;;;;;;;13.88;69.03;95378.63;4161659;28;20088;-56
2022/10/10 01:49:57;;;;;;;18.38;16.33;;;;;;;13.85;69.43;95368.41;4160564;28;20064;-56
2022/10/10 01:52:25;;;;;;;20.80;17.65;;;;;;;13.84;69.37;95373.84;4155344;28;20057;-58
2022/10/10 01:54:42;;;;;;;20.48;17.23;;;;;;;13.85;69.05;95373.69;4160878;28;20093;-57
2022/10/10 01:57:12;;;;;;;19.10;15.70;;;;;;;13.82;69.29;95376.63;4161735;28;20081;-57
2022/10/10 01:59:37;;;;;;;20.55;17.25;;;;;;;13.79;69.32;95379.59;4159747;28;20046;-62
2022/10/10 02:01:49;;;;;;;19.05;17.10;;;;;;;13.72;69.52;95373.31;4159211;28;20095;-57
2022/10/10 02:04:21;;;;;;;18.85;16.90;;;;;;;13.66;69.84;95379.25;4156328;28;20711;-57
2022/10/10 02:06:59;;;;;;;19.65;16.80;;;;;;;13.62;70.28;95383.19;4161070;28;20132;-56
2022/10/10 02:09:04;;;;;;;24.92;19.88;;;;;;;13.60;70.01;95380.69;4144373;28;20045;-58
2022/10/10 02:11:10;;;;;;;23.98;20.90;;;;;;;13.55;70.00;95377.75;4159990;28;20129;-58
2022/10/10 02:13:12;;;;;;;21.85;19.45;;;;;;;13.44;70.42;95378.00;4158766;28;20057;-59
2022/10/10 02:15:16;;;;;;;21.10;18.90;;;;;;;13.37;71.00;95384.91;4158699;28;20047;-59
2022/10/10 02:17:18;;;;;;;23.95;17.52;;;;;;;13.36;70.81;95383.25;4160424;28;20160;-59
2022/10/10 02:19:21;;;;;;;19.98;17.75;;;;;;;13.41;70.62;95391.50;4160437;28;20764;-60
2022/10/10 02:21:23;;;;;;;27.17;19.05;;;;;;;13.44;70.92;95388.53;4160774;28;20148;-57
2022/10/10 02:23:25;;;;;;;24.02;18.88;;;;;;;13.45;70.61;95390.22;4157765;28;20054;-58
2022/10/10 02:25:31;;;;;;;23.15;19.48;;;;;;;13.50;70.44;95394.00;4157156;28;20053;-57
2022/10/10 02:27:46;;;;;;;22.30;19.38;;;;;;;13.55;70.24;95383.00;4160438;28;20107;-58
2022/10/10 02:29:48;;;;;;;21.50;17.45;;;;;;;13.55;70.36;95387.41;4161763;28;20124;-56
2022/10/10 02:31:53;;;;;;;31.27;18.50;;;;;;;13.56;70.66;95387.28;4154478;28;20045;-60
2022/10/10 02:34:04;;;;;;;27.25;19.98;;;;;;;13.55;69.94;95387.41;4159558;28;20045;-58
2022/10/10 02:36:05;;;;;;;26.52;20.25;;;;;;;13.51;70.17;95390.38;4143450;28;20056;-59
2022/10/10 02:38:10;;;;;;;26.55;21.08;;;;;;;13.52;70.01;95389.38;4160460;28;20088;-57
2022/10/10 02:40:15;;;;;;;23.63;21.13;;;;;;;13.45;70.07;95392.84;4143502;28;20104;-57
2022/10/10 02:42:19;;;;;;;27.90;22.42;;;;;;;12.85;71.97;95391.88;4159916;28;20447;-58
2022/10/10 02:44:21;;;;;;;;;;;;;;;12.42;73.73;95398.84;4160819;28;20117;-58
2022/10/10 02:46:22;;;;;;;26.85;18.35;;;;;;;12.24;74.14;95398.06;4158460;28;19921;-56
2022/10/10 02:48:24;;;;;;;22.60;18.25;;;;;;;12.25;74.63;95397.06;4159700;28;20049;-57
2022/10/10 02:50:27;;;;;;;21.90;18.17;;;;;;;12.38;73.91;95394.03;4161377;28;20085;-57
2022/10/10 02:52:29;;;;;;;19.88;17.13;;;;;;;12.42;73.46;95390.13;4160224;28;20053;-58
2022/10/10 02:54:31;;;;;;;19.83;17.10;;;;;;;12.51;73.37;95389.19;4158744;28;20107;-57
2022/10/10 02:56:32;;;;;;;20.40;17.35;;;;;;;12.51;72.59;95389.19;4160310;28;20057;-59
2022/10/10 02:58:34;;;;;;;20.92;17.67;;;;;;;12.55;72.91;95392.34;4162313;28;20152;-56
2022/10/10 03:00:36;;;;;;;26.70;17.27;;;;;;;12.60;72.46;95393.53;4160602;28;20080;-58
2022/10/10 03:02:37;;;;;;;23.95;17.45;;;;;;;12.70;72.34;95394.25;4163366;28;20056;-60
2022/10/10 03:04:39;;;;;;;20.10;16.95;;;;;;;12.81;72.29;95398.44;4152028;28;20053;-57
2022/10/10 03:06:41;;;;;;;22.55;17.45;;;;;;;12.91;71.67;95395.69;4164031;28;20069;-59
2022/10/10 03:08:42;;;;;;;19.75;17.30;;;;;;;12.99;71.63;95390.50;4163120;28;20490;-56
2022/10/10 03:10:59;;;;;;;22.38;17.38;;;;;;;13.09;70.62;95390.34;4163854;28;20041;-57
2022/10/10 03:13:00;;;;;;;24.38;19.33;;;;;;;13.13;70.69;95389.06;4163693;28;20618;-57
2022/10/10 03:15:03;;;;;;;21.92;19.13;;;;;;;13.18;70.56;95391.22;4163641;28;20534;-59
2022/10/10 03:17:11;;;;;;;25.13;18.75;;;;;;;13.23;70.79;95386.31;4163673;28;20482;-57
2022/10/10 03:19:13;;;;;;;27.27;18.65;;;;;;;13.25;70.35;95395.69;4163650;28;20057;-58
2022/10/10 03:21:15;;;;;;;26.25;18.17;;;;;;;13.26;70.25;95396.50;4163727;28;20137;-57
2022/10/10 03:23:16;;;;;;;21.48;18.95;;;;;;;13.25;70.27;95400.97;4162782;28;20049;-56
2022/10/10 03:25:18;;;;;;;23.52;18.70;;;;;;;13.25;70.46;95403.59;4158106;28;20045;-60
2022/10/10 03:27:20;;;;;;;24.67;18.15;;;;;;;13.25;70.47;95402.75;4163552;28;20054;-57
2022/10/10 03:29:21;;;;;;;22.00;18.88;;;;;;;13.23;70.09;95399.47;4164047;28;20064;-56
2022/10/10 03:31:23;;;;;;;23.75;19.70;;;;;;;13.19;70.05;95406.84;4161036;28;20072;-58
2022/10/10 03:33:25;;;;;;;26.30;20.80;;;;;;;12.99;71.26;95406.28;4162786;28;20128;-56
2022/10/10 03:35:26;;;;;;;27.75;20.73;;;;;;;12.89;71.29;95403.72;4163727;28;20541;-57
2022/10/10 03:37:28;;;;;;;25.20;20.80;;;;;;;12.79;71.60;95405.66;4163565;28;20541;-57
2022/10/10 03:39:30;;;;;;;24.80;21.60;;;;;;;12.72;71.82;95402.00;4163970;28;20702;-59
2022/10/10 03:41:31;;;;;;;27.27;21.60;;;;;;;12.53;72.46;95405.66;4163151;28;20051;-57
2022/10/10 03:43:33;;;;;;;26.95;22.27;;;;;;;12.42;73.03;95411.16;4162019;28;20133;-58
2022/10/10 03:45:35;;;;;;;28.83;23.60;;;;;;;12.41;73.56;95409.50;4162195;28;20851;-58
2022/10/10 03:47:37;;;;;;;30.73;23.23;;;;;;;12.46;73.38;95408.06;4163412;28;20129;-58
2022/10/10 03:49:39;;;;;;;26.25;23.48;;;;;;;12.54;73.15;95409.09;4163227;28;20475;-57
2022/10/10 03:51:40;;;;;;;28.67;23.60;;;;;;;12.66;72.92;95407.88;4162289;28;20088;-59
2022/10/10 03:53:42;;;;;;;29.40;23.67;;;;;;;12.75;72.61;95406.13;4157849;28;20045;-56
2022/10/10 03:55:44;;;;;;;32.78;23.20;;;;;;;12.84;72.31;95410.44;4160896;28;20047;-57
2022/10/10 03:57:46;;;;;;;25.95;22.25;;;;;;;12.92;71.84;95405.22;4163474;28;20049;-57
2022/10/10 03:59:47;;;;;;;27.20;22.33;;;;;;;12.99;71.29;95405.41;4145294;28;20053;-55
2022/10/10 04:01:49;;;;;;;26.13;23.30;;;;;;;12.91;71.09;95409.66;4161748;28;20094;-58
2022/10/10 04:03:51;;;;;;;28.92;23.13;;;;;;;12.79;71.47;95403.00;4159428;28;20085;-59
2022/10/10 04:05:53;;;;;;;30.92;23.75;;;;;;;12.52;72.14;95409.25;4160834;28;20067;-57
2022/10/10 04:07:55;;;;;;;32.75;23.90;;;;;;;12.36;73.57;95411.75;4159946;28;20702;-56
2022/10/10 04:09:57;;;;;;;30.17;24.52;;;;;;;12.44;73.28;95411.81;4163123;28;20108;-58
2022/10/10 04:11:58;;;;;;;34.38;25.48;;;;;;;12.53;72.97;95412.72;4162935;28;20055;-60
2022/10/10 04:14:00;;;;;;;29.27;23.98;;;;;;;12.62;72.65;95409.97;4163131;28;20526;-64
2022/10/10 04:16:02;;;;;;;29.80;24.40;;;;;;;12.69;71.90;95411.03;4147831;28;20586;-63
2022/10/10 04:18:04;;;;;;;25.90;22.90;;;;;;;12.77;71.64;95417.31;4163120;28;20458;-64
2022/10/10 04:20:06;;;;;;;29.67;24.23;;;;;;;12.72;71.72;95417.78;4162429;28;20057;-65
2022/10/10 04:22:07;;;;;;;29.15;24.42;;;;;;;12.74;71.96;95418.44;4161482;28;20084;-65
2022/10/10 04:24:11;;;;;;;32.95;24.33;;;;;;;12.78;71.66;95416.34;4162960;28;20080;-64
2022/10/10 04:26:13;;;;;;;29.90;24.10;;;;;;;12.75;71.37;95414.81;4162681;28;20041;-64
2022/10/10 04:28:15;;;;;;;31.90;23.40;;;;;;;12.79;71.29;95410.91;4163042;28;20128;-64
2022/10/10 04:30:18;;;;;;;30.63;24.35;;;;;;;12.82;70.93;95418.50;4161182;28;20418;-65
2022/10/10 04:32:19;;;;;;;32.72;26.08;;;;;;;12.82;70.77;95412.38;4163055;28;20151;-66
2022/10/10 04:34:21;;;;;;;30.65;24.13;;;;;;;12.86;70.93;95419.00;4163324;28;20128;-64
2022/10/10 04:36:23;;;;;;;37.35;24.00;;;;;;;12.88;70.81;95409.13;4162951;28;20160;-62
2022/10/10 04:38:24;;;;;;;30.13;25.20;;;;;;;12.79;70.49;95412.72;4160703;28;20128;-63
2022/10/10 04:40:26;;;;;;;33.72;27.17;;;;;;;12.58;71.33;95413.88;4162441;28;20045;-62
2022/10/10 04:42:28;;;;;;;37.17;26.65;;;;;;;12.54;71.90;95415.19;4162804;28;20136;-64
2022/10/10 04:44:29;;;;;;;36.50;25.65;;;;;;;12.56;71.78;95426.38;4163077;28;20051;-64
2022/10/10 04:46:31;;;;;;;30.75;26.75;;;;;;;12.60;71.56;95419.00;4150301;28;20135;-63
2022/10/10 04:48:33;;;;;;;40.40;29.17;;;;;;;12.47;72.12;95420.22;4162520;28;20728;-63
2022/10/10 04:50:34;;;;;;;32.80;27.08;;;;;;;12.44;72.16;95420.53;4162677;28;20073;-64
2022/10/10 04:52:36;;;;;;;34.55;27.92;;;;;;;12.40;72.17;95413.09;4162640;28;20089;-66
2022/10/10 04:54:38;;;;;;;42.17;28.67;;;;;;;12.43;72.54;95425.94;4159599;28;20045;-65
2022/10/10 04:56:41;;;;;;;39.05;27.80;;;;;;;12.54;72.01;95422.22;4157494;28;20092;-62
2022/10/10 04:58:43;;;;;;;35.00;25.98;;;;;;;12.64;72.06;95423.78;4162482;28;20399;-65
2022/10/10 05:00:44;;;;;;;40.85;28.77;;;;;;;12.70;71.55;95425.81;4160822;28;20542;-62
2022/10/10 05:02:46;;;;;;;44.50;29.55;;;;;;;12.73;71.77;95429.09;4161981;28;20076;-64
2022/10/10 05:04:48;;;;;;;38.88;27.23;;;;;;;12.79;71.50;95431.13;4161229;28;20390;-64
2022/10/10 05:06:49;;;;;;;38.28;28.17;;;;;;;12.89;71.23;95434.47;4159584;28;20084;-63
2022/10/10 05:08:51;;;;;;;49.13;27.88;;;;;;;12.95;70.76;95433.84;4161912;28;20125;-63
2022/10/10 05:10:52;;;;;;;38.75;28.05;;;;;;;13.00;70.23;95433.38;4162248;28;20133;-64
2022/10/10 05:12:54;;;;;;;38.25;28.13;;;;;;;12.97;70.95;95431.91;4149219;28;20081;-67
2022/10/10 05:14:56;;;;;;;39.05;30.17;;;;;;;12.81;71.66;95427.34;4151378;28;20042;-64
2022/10/10 05:16:57;;;;;;;35.55;28.67;;;;;;;12.75;72.15;95435.03;4160807;28;20581;-65
2022/10/10 05:19:00;;;;;;;38.05;28.55;;;;;;;12.87;72.01;95432.00;4162322;28;20060;-64
2022/10/10 05:21:02;;;;;;;39.22;29.58;;;;;;;12.89;71.30;95434.47;4160014;28;20095;-63
2022/10/10 05:23:04;;;;;;;46.03;29.88;;;;;;;12.95;71.86;95443.53;4162274;28;20509;-63
2022/10/10 05:25:06;;;;;;;49.00;31.50;;;;;;;12.86;71.75;95446.13;4156258;28;20145;-65
2022/10/10 05:27:08;;;;;;;38.10;29.67;;;;;;;12.85;71.74;95444.47;4162111;28;20148;-63
2022/10/10 05:29:10;;;;;;;39.83;30.35;;;;;;;12.90;71.76;95444.00;4162251;28;20220;-64
2022/10/10 05:31:11;;;;;;;33.75;29.52;;;;;;;12.77;72.28;95448.84;4160198;28;20128;-67
2022/10/10 05:33:13;;;;;;;39.35;28.70;;;;;;;12.59;72.38;95452.34;4161934;28;20049;-66
2022/10/10 05:35:15;;;;;;;36.47;29.63;;;;;;;12.21;73.53;95456.13;4161860;28;20049;-63
2022/10/10 05:37:16;;;;;;;41.10;32.28;;;;;;;12.01;74.49;95450.22;4162068;28;20055;-64
2022/10/10 05:39:18;;;;;;;44.25;33.35;;;;;;;12.11;74.62;95455.38;4154538;28;20054;-63
2022/10/10 05:41:20;;;;;;;39.78;32.25;;;;;;;12.35;74.26;95466.13;4156698;28;20046;-63
2022/10/10 05:43:22;;;;;;;38.38;32.35;;;;;;;12.49;73.11;95459.47;4161734;28;20140;-64
2022/10/10 05:45:23;;;;;;;34.45;28.88;;;;;;;12.49;73.30;95462.94;4160548;28;20144;-66
2022/10/10 05:47:25;;;;;;;33.63;28.15;;;;;;;12.61;73.06;95460.91;4162072;28;20067;-67
2022/10/10 05:49:28;;;;;;;36.92;28.23;;;;;;;12.57;72.44;95459.56;4162146;28;20501;-65
2022/10/10 05:51:30;;;;;;;38.55;29.17;;;;;;;12.60;72.98;95463.69;4161775;28;20077;-66
2022/10/10 05:53:32;;;;;;;35.75;28.35;;;;;;;12.83;72.74;95456.94;4161829;28;20123;-63
2022/10/10 05:55:34;;;;;;;45.05;31.10;;;;;;;13.04;72.08;95467.09;4159529;28;20059;-62
2022/10/10 05:57:36;;;;;;;33.95;28.25;;;;;;;13.24;71.58;95469.53;4150706;28;20742;-65
2022/10/10 05:59:37;;;;;;;37.88;28.92;;;;;;;13.38;70.79;95471.59;4160459;28;20081;-63
2022/10/10 06:01:39;;;;;;;45.17;30.08;;;;;;;13.41;70.92;95473.09;4159938;28;20052;-67
2022/10/10 06:03:41;;;;;;;42.80;30.50;;;;;;;13.55;69.98;95472.50;4158535;28;20049;-58
2022/10/10 06:05:44;;;;;;;33.65;27.95;;;;;;;13.67;69.54;95475.66;4157388;28;20132;-60
2022/10/10 06:07:46;;;;;;;37.60;28.00;;;;;;;13.78;69.04;95477.19;4161719;28;20049;-59
2022/10/10 06:10:08;;;;;;;34.38;28.13;;;;;;;13.90;68.87;95473.28;4151061;28;20064;-60
2022/10/10 06:12:10;;;;;;;36.50;29.38;;;;;;;13.99;68.53;95477.56;4161501;28;20128;-60
2022/10/10 06:14:11;;;;;;;36.28;29.50;;;;;;;14.03;68.31;95480.72;4161622;28;20167;-60
2022/10/10 06:16:13;;;;;;;35.50;29.77;;;;;;;14.14;68.39;95483.88;4160030;28;20137;-59
2022/10/10 06:18:15;;;;;;;36.00;27.98;;;;;;;14.26;67.98;95481.75;4161480;28;20480;-60
2022/10/10 06:20:17;;;;;;;36.55;28.70;;;;;;;14.41;67.61;95481.94;4159934;28;20050;-62
2022/10/10 06:22:18;;;;;;;29.73;26.63;;;;;;;14.51;67.26;95489.69;4161604;28;20435;-59
2022/10/10 06:24:20;;;;;;;39.45;29.85;;;;;;;14.58;67.31;95484.59;4161472;28;20178;-59
2022/10/10 06:26:22;;;;;;;33.22;28.73;;;;;;;14.61;66.83;95484.28;4161353;28;20136;-58
2022/10/10 06:28:23;;;;;;;34.25;28.42;;;;;;;14.65;66.48;95485.63;4161442;28;20136;-62
2022/10/10 06:30:25;;;;;;;35.72;28.05;;;;;;;14.51;66.69;95489.69;4159852;28;20057;-59
2022/10/10 06:32:27;;;;;;;46.60;28.98;;;;;;;14.00;68.35;95491.56;4163765;28;20045;-59
2022/10/10 06:34:28;;;;;;;34.58;29.20;;;;;;;14.05;67.88;95494.56;4164616;28;20045;-60
2022/10/10 06:36:30;;;;;;;35.47;27.45;;;;;;;14.11;68.54;95491.25;4164526;28;20058;-58
2022/10/10 06:38:35;;;;;;;35.13;27.10;;;;;;;14.29;68.61;95491.97;4164758;28;20128;-61
2022/10/10 06:40:38;;;;;;;34.67;27.08;;;;;;;14.50;67.60;95496.78;4164047;28;20140;-61
2022/10/10 06:42:39;;;;;;;32.80;26.70;;;;;;;14.57;67.16;95494.34;4164716;28;20053;-61
2022/10/10 06:44:41;;;;;;;35.33;26.48;;;;;;;14.45;66.67;95493.78;4164705;28;20132;-59
2022/10/10 06:46:43;;;;;;;34.55;28.02;;;;;;;14.45;67.26;95495.59;4162830;28;20092;-60
2022/10/10 06:48:45;;;;;;;35.70;28.38;;;;;;;14.49;66.84;95499.56;4162937;28;20068;-57
2022/10/10 06:51:02;;;;;;;34.70;26.48;;;;;;;14.50;66.95;95501.22;4164227;28;20132;-58
2022/10/10 06:53:05;;;;;;;36.03;26.17;;;;;;;14.46;66.86;95494.63;4164341;28;20132;-61
2022/10/10 06:55:07;;;;;;;39.30;28.70;;;;;;;14.29;67.30;95505.13;4164244;28;20581;-59
2022/10/10 06:57:09;;;;;;;34.78;28.40;;;;;;;14.44;67.73;95500.06;4163165;28;20057;-60
2022/10/10 06:59:10;;;;;;;41.70;27.83;;;;;;;14.64;66.91;95505.03;4164038;28;20092;-63
2022/10/10 07:01:12;;;;;;;36.95;29.65;;;;;;;14.76;66.69;95498.47;4162236;28;20128;-63
2022/10/10 07:03:14;;;;;;;46.45;29.60;;;;;;;14.82;66.82;95504.88;4164339;28;20422;-64
2022/10/10 07:05:16;;;;;;;40.35;30.88;;;;;;;14.69;66.94;95508.00;4164415;28;20421;-65
2022/10/10 07:07:18;;;;;;;42.97;30.98;;;;;;;14.70;67.52;95505.22;4162849;28;20045;-63
2022/10/10 07:09:20;;;;;;;46.83;31.13;;;;;;;14.84;67.03;95505.53;4163960;28;20108;-66
2022/10/10 07:11:21;;;;;;;41.20;32.15;;;;;;;14.95;66.46;95507.84;4163539;28;20081;-66
2022/10/10 07:13:23;;;;;;;44.00;30.65;;;;;;;15.08;66.06;95505.53;4160850;28;20108;-65
2022/10/10 07:15:25;;;;;;;38.80;28.85;;;;;;;15.18;65.76;95505.34;4162999;28;20096;-67
2022/10/10 07:17:26;;;;;;;34.45;28.60;;;;;;;15.35;65.62;95508.75;4164460;28;20052;-65
2022/10/10 07:19:28;;;;;;;44.42;28.17;;;;;;;15.39;64.22;95506.63;4163471;28;20068;-66
2022/10/10 07:21:30;;;;;;;35.17;28.02;;;;;;;15.32;64.14;95498.56;4163793;28;20053;-66
2022/10/10 07:23:32;;;;;;;36.80;27.42;;;;;;;15.23;64.82;95504.81;4160871;28;20042;-66
2022/10/10 07:25:33;;;;;;;35.38;27.05;;;;;;;15.33;64.85;95503.66;4161516;28;20179;-66
2022/10/10 07:27:35;;;;;;;40.20;26.65;;;;;;;15.48;64.47;95492.41;4162295;28;20470;-67
2022/10/10 07:29:37;;;;;;;33.95;26.63;;;;;;;15.67;64.03;95499.09;4164002;28;20049;-64
2022/10/10 07:31:38;;;;;;;38.15;26.45;;;;;;;15.77;63.44;95494.47;4162325;28;20053;-67
2022/10/10 07:33:43;;;;;;;35.85;25.52;;;;;;;15.91;63.04;95492.91;4163780;28;20053;-65
2022/10/10 07:35:53;;;;;;;32.60;26.73;;;;;;;16.07;62.68;95492.84;4162786;28;20506;-65
2022/10/10 07:37:55;;;;;;;34.40;26.35;;;;;;;16.23;62.42;95493.75;4163973;28;20157;-67
2022/10/10 07:39:57;;;;;;;35.38;26.38;;;;;;;16.11;62.09;95494.16;4164075;28;20541;-62
2022/10/10 07:41:59;;;;;;;38.95;28.35;;;;;;;16.16;62.16;95490.97;4163250;28;20120;-65
2022/10/10 07:44:00;;;;;;;31.42;26.50;;;;;;;16.23;61.76;95486.63;4163183;28;20052;-65
2022/10/10 07:46:03;;;;;;;42.72;27.33;;;;;;;16.31;61.09;95485.78;4161630;28;20088;-63
2022/10/10 07:48:11;;;;;;;39.22;27.38;;;;;;;16.26;61.43;95485.44;4161930;28;20061;-64
2022/10/10 07:50:13;;;;;;;30.92;25.08;;;;;;;16.31;61.44;95483.94;4163494;28;20499;-65
2022/10/10 07:52:15;;;;;;;35.42;25.15;;;;;;;16.40;61.27;95481.25;4163489;28;20124;-63
2022/10/10 07:54:16;;;;;;;34.05;22.75;;;;;;;16.55;61.30;95484.78;4163319;28;20144;-66
2022/10/10 07:56:18;;;;;;;41.30;24.95;;;;;;;16.38;61.20;95479.59;4162812;28;20059;-63
2022/10/10 07:58:20;;;;;;;41.63;23.50;;;;;;;16.22;61.00;95477.06;4161338;28;20489;-66
2022/10/10 08:00:21;;;;;;;28.55;22.42;;;;;;;16.22;61.73;95478.88;4160799;28;20049;-63
2022/10/10 08:02:23;;;;;;;32.95;21.85;;;;;;;16.22;61.84;95482.34;4163129;28;20050;-63
2022/10/10 08:04:25;;;;;;;36.45;23.55;;;;;;;16.26;61.17;95481.00;4155968;28;20505;-64
2022/10/10 08:06:26;;;;;;;27.50;21.48;;;;;;;15.90;62.29;95478.88;4163294;28;20140;-64
2022/10/10 08:08:28;;;;;;;30.52;20.58;;;;;;;15.99;62.18;95478.84;4162097;28;20049;-65
2022/10/10 08:10:30;;;;;;;32.10;22.98;;;;;;;15.99;62.02;95479.66;4162980;28;20049;-63
2022/10/10 08:12:31;;;;;;;35.35;22.55;;;;;;;15.99;61.75;95473.56;4163400;28;20045;-65
2022/10/10 08:14:33;;;;;;;36.78;21.38;;;;;;;16.03;61.63;95473.03;4162931;28;20563;-65
2022/10/10 08:16:35;;;;;;;29.33;19.58;;;;;;;16.21;61.88;95477.25;4161726;28;20087;-65
2022/10/10 08:18:37;;;;;;;30.23;20.48;;;;;;;16.44;61.10;95472.78;4163232;28;20049;-64
2022/10/10 08:20:38;;;;;;;43.42;23.73;;;;;;;16.59;60.02;95470.19;4162675;28;20065;-65
2022/10/10 08:22:40;;;;;;;30.42;22.75;;;;;;;16.49;60.04;95474.91;4162965;28;20085;-66
2022/10/10 08:24:42;;;;;;;28.17;19.73;;;;;;;16.36;60.98;95475.47;4163373;28;20199;-64
2022/10/10 08:26:43;;;;;;;24.20;17.58;;;;;;;16.54;60.50;95469.88;4161747;28;20470;-67
2022/10/10 08:28:47;;;;;;;35.28;18.80;;;;;;;16.69;60.01;95470.78;4162780;28;20490;-66
2022/10/10 08:30:49;;;;;;;21.58;15.25;;;;;;;16.58;59.94;95471.19;4161536;28;20680;-59
2022/10/10 08:32:50;;;;;;;22.65;14.15;;;;;;;16.37;60.70;95475.31;4162832;28;20065;-60
2022/10/10 08:34:53;;;;;;;23.05;13.98;;;;;;;16.55;60.43;95471.56;4163000;28;20060;-58
2022/10/10 08:36:54;;;;;;;21.42;13.27;;;;;;;16.69;59.87;95470.78;4161794;28;20073;-58
2022/10/10 08:38:59;;;;;;;22.27;14.52;;;;;;;16.72;59.64;95462.47;4162871;28;20080;-62
2022/10/10 08:41:12;;;;;;;24.85;15.10;;;;;;;16.67;59.70;95467.50;4162950;28;20083;-59
2022/10/10 08:43:28;;;;;;;19.38;13.55;;;;;;;16.83;59.84;95471.03;4161497;28;20248;-60
2022/10/10 08:45:31;;;;;;;21.77;13.48;;;;;;;16.89;59.47;95478.25;4149777;28;20094;-59
2022/10/10 08:47:48;;;;;;;18.58;13.65;;;;;;;16.97;59.11;95478.16;4162728;28;20077;-61
2022/10/10 08:49:54;;;;;;;19.65;12.48;;;;;;;17.09;59.06;95481.22;4161309;28;20761;-61
2022/10/10 08:52:38;;;;;;;14.40;11.05;;;;;;;17.35;58.39;95476.28;4161529;28;20073;-60
2022/10/10 08:54:40;;;;;;;22.65;13.55;;;;;;;17.44;57.23;95479.69;4161937;28;20156;-60
2022/10/10 08:56:42;;;;;;;25.42;14.88;;;;;;;17.46;57.48;95477.66;4160996;28;20045;-60
2022/10/10 08:58:52;;;;;;;21.20;13.23;;;;;;;17.58;57.51;95478.06;4159178;28;20124;-59
2022/10/10 09:01:17;;;;;;;15.80;10.68;;;;;;;17.51;57.48;95475.31;4158318;28;20107;-62
2022/10/10 09:03:28;;;;;;;23.90;15.35;;;;;;;17.11;58.99;95479.22;4152529;28;20069;-61
2022/10/10 09:05:38;;;;;;;27.98;16.75;;;;;;;17.10;59.75;95482.84;4161397;28;20133;-60
2022/10/10 09:07:55;;;;;;;20.63;10.93;;;;;;;17.15;58.40;95488.44;4161920;28;20049;-61
2022/10/10 09:10:06;;;;;;;26.92;15.38;;;;;;;17.30;58.87;95488.47;4148857;28;20129;-61
2022/10/10 09:12:25;;;;;;;22.55;15.52;;;;;;;17.47;59.05;95483.81;4162593;28;20073;-61
2022/10/10 09:14:35;;;;;;;24.48;16.10;;;;;;;17.75;58.23;95484.78;4160714;28;20417;-63
2022/10/10 09:16:53;;;;;;;27.10;15.48;;;;;;;17.87;58.05;95487.81;4149502;28;20057;-59
2022/10/10 09:19:01;;;;;;;19.45;11.88;;;;;;;18.00;57.09;95490.66;4159105;28;20052;-59
2022/10/10 09:21:11;;;;;;;24.17;9.95;;;;;;;18.17;56.50;95491.22;4161281;28;20069;-59
2022/10/10 09:23:24;;;;;;;12.02;8.98;;;;;;;18.28;55.00;95497.88;4161189;28;20049;-59
2022/10/10 09:26:00;;;;;;;10.43;8.43;;;;;;;18.44;55.41;95501.34;4157638;28;20057;-65
2022/10/10 09:28:19;;;;;;;14.00;8.43;;;;;;;18.52;54.45;95494.06;4162272;28;20048;-63
2022/10/10 09:30:20;;;;;;;12.13;8.10;;;;;;;18.57;54.00;95491.66;4159337;28;20115;-69
2022/10/10 09:32:26;;;;;;;12.70;7.30;;;;;;;18.66;53.90;95495.00;4162251;28;20556;-65